Station: Emerald  

  Atmospheric Gas Attenuation - ITU Rec 676-11   ----------------- dB/100km -----------------
Date Time Temp RH % AH g/m3 Dew Point Wind Direction Speed kph Gust kph Barometer mB Rainfall Since 9am 24GHz 47GHz 76GHz 122GHz 134GHz 241GHz
08/05 12:30 20 20 3.46 -3.6 24 35 1020.4 0 8.5 17.4 19.9 51.2 34.5 114.6
08/05 12:20 19.2 20 3.3 -4.3 28 33 1020.7 0 8.2 17.4 19.6 50.4 33.2 110.1
08/05 12:10 20.1 21 3.65 -2.9 30 37 1020.7 0 8.9 17.6 20.4 52.7 36.4 121.3
08/05 12:00 19 20 3.26 -4.4 28 39 1020.8 0 8.2 17.4 19.5 50.2 32.9 109.0
08/05 11:50 19.4 21 3.5 -3.5 24 28 1021.2 0 8.6 17.6 20.2 51.9 35.2 117.0
08/05 11:40 18.8 21 3.38 -4 32 43 1021.5 0 8.4 17.6 20.0 51.3 34.2 113.5
08/05 11:30 18.7 22 3.52 -3.4 32 41 1021.6 0 8.7 17.8 20.4 52.6 35.7 118.7
08/05 11:20 18.2 21 3.26 -4.5 35 41 1022 0 8.2 17.5 19.8 50.8 33.3 110.1
08/05 11:10 18.2 22 3.42 -3.8 33 39 1022.2 0 8.5 17.8 20.2 52.1 34.9 115.9
08/05 11:00 17.5 23 3.43 -3.8 30 39 1022.3 0 8.6 17.9 20.4 52.6 35.3 117.2
08/05 10:50 17.9 23 3.51 -3.5 28 32 1022.6 0 8.7 17.9 20.6 53.0 36.0 119.6
08/05 10:40 17.8 23 3.49 -3.6 30 35 1022.6 0 8.7 17.9 20.6 52.9 35.8 119.0
08/05 10:30 17.7 23 3.47 -3.7 28 43 1022.6 0 8.6 17.9 20.5 52.8 35.6 118.4
08/05 10:20 16.8 24 3.43 -3.9 35 39 1022.9 0 8.6 18.0 20.6 53.1 35.6 118.2
08/05 10:10 16.7 24 3.41 -3.9 33 37 1023 0 8.5 18.0 20.6 53.0 35.5 117.7
08/05 10:00 17.1 25 3.64 -3.1 33 44 1022.8 0 9.0 18.3 21.2 54.7 37.7 125.5
08/05 09:50 16.1 24 3.29 -4.4 39 50 1022.9 0 8.3 18.0 20.4 52.4 34.5 114.1
08/05 09:40 16.2 24 3.31 -4.4 32 41 1022.8 0 8.3 18.0 20.4 52.5 34.6 114.7
08/05 09:30 16.3 26 3.61 -3.2 30 43 1023 0 9.0 18.4 21.3 55.0 37.7 125.6
08/05 09:20 16.1 28 3.84 -2.4 33 43 1023 0 9.4 18.7 22.1 57.1 40.3 134.5
08/05 09:10 15.9 29 3.93 -2.1 32 39 1022.9 0 9.6 18.9 22.5 58.0 41.3 138.2
08/05 09:00 16 30 4.09 -1.5 32 44 1022.8 0 10.0 19.1 22.9 59.3 43.0 144.1
08/05 08:50 15.3 31 4.05 -1.7 39 44 1022.8 0 9.9 19.1 23.0 59.4 42.9 143.8
08/05 08:40 15.4 32 4.2 -1.2 33 41 1022.8 0 10.2 19.3 23.5 60.7 44.5 149.4
08/05 08:30 15.2 33 4.28 -0.9 32 46 1022.6 0 10.4 19.5 23.8 61.5 45.5 152.8
08/05 08:20 15 35 4.49 -0.3 32 39 1022.5 0 10.8 19.8 24.5 63.6 47.9 161.4
08/05 08:10 15 37 4.74 0.4 28 37 1022.7 0 11.4 20.1 25.4 65.8 50.7 171.2
08/05 08:00 15 38 4.87 0.8 35 46 1022.3 0 11.6 20.3 25.8 67.0 52.2 176.3
08/05 07:50 14.8 40 5.07 1.3 35 41 1022.3 0 12.1 20.6 26.6 69.0 54.6 184.8
08/05 07:40 14.6 40 5.01 1.2 33 43 1022.2 0 11.9 20.6 26.4 68.6 54.0 182.8
08/05 07:30 14.7 41 5.16 1.6 26 37 1022 0 12.3 20.8 26.9 69.9 55.7 188.6
08/05 07:20 14.2 42 5.13 1.5 22 26 1022 0 12.2 20.8 27.0 70.0 55.7 188.5
08/05 07:10 14 44 5.31 2 19 24 1021.9 0 12.6 21.1 27.7 71.9 57.9 196.3
08/05 07:00 13.8 45 5.36 2.1 26 41 1021.6 0 12.7 21.2 27.9 72.5 58.6 198.8
08/05 06:50 13.8 47 5.6 2.7 28 33 1021.4 0 13.2 21.6 28.7 74.8 61.4 208.7
08/05 06:40 13.7 49 5.8 3.2 24 30 1020.9 0 13.6 21.9 29.5 76.8 63.8 217.2
08/05 06:30 13.8 50 5.96 3.6 32 43 1020.7 0 14.0 22.1 30.0 78.2 65.7 223.6
08/05 06:20 13.9 50 5.99 3.7 32 37 1020.5 0 14.0 22.1 30.1 78.4 65.9 224.6
08/05 06:10 14 51 6.15 4 32 39 1020.4 0 14.4 22.3 30.6 79.8 67.8 231.0
08/05 06:00 14.2 52 6.35 4.5 32 46 1020.1 0 14.8 22.5 31.3 81.6 70.0 238.8
08/05 05:50 14.4 52 6.43 4.7 33 39 1019.9 0 14.9 22.6 31.5 82.1 70.8 241.6
08/05 05:40 14.5 52 6.47 4.8 32 41 1019.8 0 15.0 22.6 31.6 82.4 71.1 243.0
08/05 05:30 14.7 52 6.55 5 35 56 1019.9 0 15.2 22.7 31.8 83.0 71.9 245.8
08/05 05:20 15 53 6.8 5.5 39 48 1019.6 0 15.7 23.0 32.6 85.1 74.7 255.5
08/05 05:10 15 52 6.67 5.2 32 39 1019.5 0 15.4 22.8 32.1 83.8 73.1 249.9
08/05 05:00 15.2 52 6.75 5.4 35 50 1019.3 0 15.6 22.9 32.3 84.4 73.9 252.6
08/05 04:50 15.2 52 6.75 5.4 33 39 1019.1 0 15.6 22.9 32.3 84.4 73.9 252.6
08/05 04:40 15.4 51 6.7 5.3 33 41 1019.2 0 15.5 22.7 32.0 83.7 73.1 249.9
08/05 04:30 15.6 50 6.65 5.2 32 52 1019.1 0 15.4 22.6 31.8 83.0 72.3 247.1
08/05 04:20 15.7 50 6.69 5.3 33 41 1018.8 0 15.4 22.6 31.9 83.2 72.7 248.4
08/05 04:10 15.9 49 6.64 5.2 32 52 1018.8 0 15.3 22.5 31.6 82.5 71.9 245.7
08/05 04:00 15.8 49 6.6 5.1 28 43 1019 0 15.3 22.5 31.5 82.3 71.5 244.4
08/05 03:50 15.8 49 6.6 5.1 17 19 1018.9 0 15.3 22.5 31.5 82.3 71.5 244.4
08/05 03:40 16 48 6.54 5 28 35 1018.8 0 15.1 22.3 31.2 81.5 70.6 241.2
08/05 03:30 16 48 6.54 5 24 35 1018.8 0 15.1 22.3 31.2 81.5 70.6 241.2
08/05 03:20 15.9 48 6.5 4.9 24 28 1018.8 0 15.0 22.3 31.1 81.2 70.2 239.9
08/05 03:10 16.1 47 6.44 4.8 20 22 1018.9 0 14.9 22.2 30.8 80.4 69.3 236.8
08/05 03:00 16.1 47 6.44 4.8 22 30 1019.1 0 14.9 22.2 30.8 80.4 69.3 236.8
08/05 02:50 16.4 46 6.42 4.8 22 26 1018.9 0 14.8 22.1 30.6 79.9 68.8 235.1
08/05 02:40 16.2 46 6.34 4.6 19 28 1018.9 0 14.7 22.0 30.4 79.4 68.1 232.4
08/05 02:30 16.5 46 6.46 4.9 22 32 1018.8 0 14.9 22.1 30.7 80.2 69.2 236.4
08/05 02:20 16.7 45 6.39 4.7 22 26 1018.9 0 14.8 22.0 30.4 79.3 68.2 233.0
08/05 02:10 16.9 45 6.47 4.9 22 26 1018.8 0 14.9 22.0 30.6 79.9 69.0 235.7
08/05 02:00 17.1 45 6.55 5.1 28 39 1018.8 0 15.1 22.1 30.8 80.5 69.7 238.4
08/05 01:50 17.3 45 6.63 5.3 28 37 1018.7 0 15.3 22.2 31.0 81.0 70.5 241.1
08/05 01:40 17.4 44 6.52 5 22 26 1018.6 0 15.0 22.0 30.6 79.9 69.1 236.3
08/05 01:30 17.5 45 6.71 5.4 26 43 1018.7 0 15.4 22.2 31.2 81.6 71.3 243.8
08/05 01:20 17.7 45 6.79 5.6 26 30 1018.7 0 15.6 22.3 31.5 82.1 72.0 246.5
08/05 01:10 17.9 45 6.87 5.8 26 30 1018.7 0 15.7 22.4 31.7 82.7 72.8 249.2
08/05 01:00 18.2 44 6.84 5.8 28 39 1018.6 0 15.7 22.2 31.4 82.1 72.2 247.0
08/05 00:50 18.3 44 6.88 5.8 26 28 1018.5 0 15.7 22.3 31.5 82.4 72.5 248.3
08/05 00:40 18.5 43 6.8 5.7 24 32 1018.5 0 15.6 22.1 31.2 81.4 71.4 244.4
08/05 00:30 18.6 43 6.84 5.8 24 37 1018.5 0 15.6 22.1 31.3 81.7 71.8 245.8
08/05 00:20 18.7 43 6.88 5.9 22 26 1018.6 0 15.7 22.2 31.4 82.0 72.2 247.1
08/05 00:10 18.7 43 6.88 5.9 24 32 1018.5 0 15.7 22.2 31.4 82.0 72.2 247.1
08/05 00:00 18.8 43 6.92 6 24 32 1018.5 0 15.8 22.2 31.5 82.2 72.5 248.4
07/05 23:50 18.8 44 7.09 6.3 19 24 1018.6 0 16.2 22.4 32.1 83.9 74.5 255.4
07/05 23:40 18.9 43 6.97 6.1 20 22 1018.6 0 15.9 22.3 31.6 82.6 73.0 250.2
07/05 23:30 19.1 43 7.05 6.2 22 30 1018.6 0 16.1 22.3 31.8 83.2 73.8 252.8
07/05 23:20 19.2 44 7.25 6.7 26 33 1018.5 0 16.5 22.6 32.5 85.0 76.0 260.7
07/05 23:10 19.1 45 7.38 6.9 24 28 1018.6 0 16.8 22.8 33.0 86.3 77.7 266.4
07/05 23:00 19.1 46 7.54 7.2 20 30 1018.5 0 17.1 23.0 33.6 87.8 79.5 273.0
07/05 22:50 19.1 47 7.7 7.5 17 20 1018.6 0 17.4 23.3 34.2 89.4 81.5 279.7
07/05 22:40 19.2 48 7.91 7.9 20 24 1018.6 0 17.9 23.5 34.9 91.3 83.9 288.2
07/05 22:30 18.9 50 8.1 8.3 17 22 1018.6 0 18.3 23.9 35.7 93.5 86.5 297.3
07/05 22:20 18.9 51 8.26 8.6 15 17 1018.8 0 18.6 24.1 36.3 95.1 88.4 304.2
07/05 22:10 18.7 53 8.48 8.9 15 17 1018.9 0 19.1 24.5 37.2 97.6 91.4 314.5
07/05 22:00 18.9 53 8.59 9.1 11 15 1018.9 0 19.3 24.7 37.5 98.4 92.5 318.4
07/05 21:50 19 53 8.64 9.2 11 13 1018.8 0 19.4 24.7 37.7 98.8 93.0 320.2
07/05 21:40 19.2 53 8.74 9.4 13 15 1018.8 0 19.6 24.8 38.0 99.5 94.0 323.7
07/05 21:30 19.2 53 8.74 9.4 11 15 1018.9 0 19.6 24.8 38.0 99.6 94.0 323.7
07/05 21:20 19.4 53 8.84 9.6 9 11 1018.9 0 19.8 24.9 38.2 100.3 95.0 327.3
07/05 21:10 19.7 52 8.83 9.6 11 13 1018.8 0 19.8 24.8 38.1 99.8 94.5 325.6
07/05 21:00 19.7 53 9 9.9 11 13 1018.8 0 20.1 25.1 38.7 101.5 96.6 333.0
07/05 20:50 19.9 53 9.11 10 9 11 1018.8 0 20.4 25.2 39.0 102.4 97.7 336.9
07/05 20:40 19.9 53 9.11 10 9 11 1018.7 0 20.4 25.2 39.0 102.4 97.7 336.9
07/05 20:30 20.2 53 9.27 10.3 9 11 1018.6 0 20.7 25.3 39.5 103.6 99.3 342.5
07/05 20:20 20.6 51 9.13 10.1 9 11 1018.5 0 20.4 25.0 38.7 101.7 97.1 334.7
07/05 20:10 21 50 9.16 10.2 9 11 1018.4 0 20.4 24.9 38.7 101.4 97.0 334.3
07/05 20:00 21.1 50 9.21 10.3 11 17 1018.4 0 20.5 25.0 38.8 101.8 97.5 336.1

Last Refresh: 08-May-2026 12:07:30

Bureau of Meteorology